sensor_id;sensor_type;location;lat;lon;timestamp;P1;durP1;ratioP1;P2;durP2;ratioP2
26538;SDS011;14205;43.200;24.170;2022-08-19T00:00:34;7.13;;;5.13;;
26538;SDS011;14205;43.200;24.170;2022-08-19T00:03:03;8.73;;;4.90;;
26538;SDS011;14205;43.200;24.170;2022-08-19T00:05:29;7.95;;;4.70;;
26538;SDS011;14205;43.200;24.170;2022-08-19T00:07:55;6.30;;;4.43;;
26538;SDS011;14205;43.200;24.170;2022-08-19T00:10:21;10.25;;;5.32;;
26538;SDS011;14205;43.200;24.170;2022-08-19T00:12:46;10.80;;;5.10;;
26538;SDS011;14205;43.200;24.170;2022-08-19T00:15:14;7.38;;;5.38;;
26538;SDS011;14205;43.200;24.170;2022-08-19T00:17:42;9.27;;;5.28;;
26538;SDS011;14205;43.200;24.170;2022-08-19T00:20:10;8.00;;;5.18;;
26538;SDS011;14205;43.200;24.170;2022-08-19T00:22:43;8.30;;;5.13;;
26538;SDS011;14205;43.200;24.170;2022-08-19T00:25:09;6.57;;;5.10;;
26538;SDS011;14205;43.200;24.170;2022-08-19T00:27:35;7.60;;;5.43;;
26538;SDS011;14205;43.200;24.170;2022-08-19T00:30:02;7.45;;;5.13;;
26538;SDS011;14205;43.200;24.170;2022-08-19T00:32:29;6.50;;;5.15;;
26538;SDS011;14205;43.200;24.170;2022-08-19T00:34:54;10.30;;;5.32;;
26538;SDS011;14205;43.200;24.170;2022-08-19T00:37:23;7.40;;;5.10;;
26538;SDS011;14205;43.200;24.170;2022-08-19T00:39:50;7.53;;;5.13;;
26538;SDS011;14205;43.200;24.170;2022-08-19T00:42:17;9.82;;;5.13;;
26538;SDS011;14205;43.200;24.170;2022-08-19T00:44:43;7.65;;;5.00;;
26538;SDS011;14205;43.200;24.170;2022-08-19T00:47:09;7.97;;;4.60;;
26538;SDS011;14205;43.200;24.170;2022-08-19T00:49:38;8.48;;;4.97;;
26538;SDS011;14205;43.200;24.170;2022-08-19T00:52:15;6.47;;;5.10;;
26538;SDS011;14205;43.200;24.170;2022-08-19T00:54:44;8.23;;;5.25;;
26538;SDS011;14205;43.200;24.170;2022-08-19T00:57:14;8.13;;;5.05;;
26538;SDS011;14205;43.200;24.170;2022-08-19T00:59:44;7.80;;;4.97;;
26538;SDS011;14205;43.200;24.170;2022-08-19T01:02:13;6.47;;;4.97;;
26538;SDS011;14205;43.200;24.170;2022-08-19T01:04:39;8.38;;;4.40;;
26538;SDS011;14205;43.200;24.170;2022-08-19T01:07:05;9.38;;;4.47;;
26538;SDS011;14205;43.200;24.170;2022-08-19T01:09:31;8.13;;;5.20;;
26538;SDS011;14205;43.200;24.170;2022-08-19T01:11:56;7.85;;;5.13;;
26538;SDS011;14205;43.200;24.170;2022-08-19T01:14:22;10.15;;;5.95;;
26538;SDS011;14205;43.200;24.170;2022-08-19T01:16:48;8.23;;;5.30;;
26538;SDS011;14205;43.200;24.170;2022-08-19T01:19:36;7.05;;;5.32;;
26538;SDS011;14205;43.200;24.170;2022-08-19T01:24:51;7.55;;;5.20;;
26538;SDS011;14205;43.200;24.170;2022-08-19T01:27:17;8.70;;;5.32;;
26538;SDS011;14205;43.200;24.170;2022-08-19T01:29:43;6.00;;;4.82;;
26538;SDS011;14205;43.200;24.170;2022-08-19T01:32:11;6.97;;;4.80;;
26538;SDS011;14205;43.200;24.170;2022-08-19T01:34:38;7.07;;;5.22;;
26538;SDS011;14205;43.200;24.170;2022-08-19T01:37:10;10.35;;;4.95;;
26538;SDS011;14205;43.200;24.170;2022-08-19T01:39:37;7.20;;;4.88;;
26538;SDS011;14205;43.200;24.170;2022-08-19T01:42:05;9.75;;;4.82;;
26538;SDS011;14205;43.200;24.170;2022-08-19T01:44:32;8.10;;;5.03;;
26538;SDS011;14205;43.200;24.170;2022-08-19T01:46:58;5.80;;;4.72;;
26538;SDS011;14205;43.200;24.170;2022-08-19T01:49:24;7.50;;;5.30;;
26538;SDS011;14205;43.200;24.170;2022-08-19T01:51:51;9.32;;;4.90;;
26538;SDS011;14205;43.200;24.170;2022-08-19T01:54:19;8.88;;;5.10;;
26538;SDS011;14205;43.200;24.170;2022-08-19T01:56:47;10.38;;;5.38;;
26538;SDS011;14205;43.200;24.170;2022-08-19T01:59:14;8.82;;;4.95;;
26538;SDS011;14205;43.200;24.170;2022-08-19T02:01:44;6.93;;;5.15;;
26538;SDS011;14205;43.200;24.170;2022-08-19T02:04:10;7.55;;;5.15;;
26538;SDS011;14205;43.200;24.170;2022-08-19T02:06:35;7.93;;;5.00;;
26538;SDS011;14205;43.200;24.170;2022-08-19T02:09:02;6.90;;;4.80;;
26538;SDS011;14205;43.200;24.170;2022-08-19T02:11:30;8.05;;;5.65;;
26538;SDS011;14205;43.200;24.170;2022-08-19T02:13:59;6.63;;;4.85;;
26538;SDS011;14205;43.200;24.170;2022-08-19T02:16:30;7.53;;;5.40;;
26538;SDS011;14205;43.200;24.170;2022-08-19T02:18:56;7.03;;;5.35;;
26538;SDS011;14205;43.200;24.170;2022-08-19T02:21:25;8.93;;;5.22;;
26538;SDS011;14205;43.200;24.170;2022-08-19T02:23:51;6.40;;;5.22;;
26538;SDS011;14205;43.200;24.170;2022-08-19T02:26:17;6.93;;;4.90;;
26538;SDS011;14205;43.200;24.170;2022-08-19T02:28:43;11.10;;;5.10;;
26538;SDS011;14205;43.200;24.170;2022-08-19T02:31:10;8.63;;;4.80;;
26538;SDS011;14205;43.200;24.170;2022-08-19T02:33:37;6.68;;;5.30;;
26538;SDS011;14205;43.200;24.170;2022-08-19T02:36:03;7.85;;;5.30;;
26538;SDS011;14205;43.200;24.170;2022-08-19T02:38:30;8.27;;;4.80;;
26538;SDS011;14205;43.200;24.170;2022-08-19T02:41:00;6.38;;;5.18;;
26538;SDS011;14205;43.200;24.170;2022-08-19T02:43:30;8.55;;;5.57;;
26538;SDS011;14205;43.200;24.170;2022-08-19T02:45:57;9.50;;;4.82;;
26538;SDS011;14205;43.200;24.170;2022-08-19T02:48:23;7.30;;;5.43;;
26538;SDS011;14205;43.200;24.170;2022-08-19T02:50:51;6.68;;;5.60;;
26538;SDS011;14205;43.200;24.170;2022-08-19T02:53:21;7.05;;;5.50;;
26538;SDS011;14205;43.200;24.170;2022-08-19T02:55:48;6.35;;;4.63;;
26538;SDS011;14205;43.200;24.170;2022-08-19T02:58:15;6.75;;;5.10;;
26538;SDS011;14205;43.200;24.170;2022-08-19T03:00:45;8.63;;;4.32;;
26538;SDS011;14205;43.200;24.170;2022-08-19T03:03:12;6.70;;;5.10;;
26538;SDS011;14205;43.200;24.170;2022-08-19T03:05:38;6.57;;;4.90;;
26538;SDS011;14205;43.200;24.170;2022-08-19T03:08:04;6.80;;;4.70;;
26538;SDS011;14205;43.200;24.170;2022-08-19T03:10:31;8.77;;;4.45;;
26538;SDS011;14205;43.200;24.170;2022-08-19T03:12:57;9.02;;;5.07;;
26538;SDS011;14205;43.200;24.170;2022-08-19T03:15:22;6.18;;;4.68;;
26538;SDS011;14205;43.200;24.170;2022-08-19T03:17:48;7.97;;;5.15;;
26538;SDS011;14205;43.200;24.170;2022-08-19T03:20:13;8.13;;;5.45;;
26538;SDS011;14205;43.200;24.170;2022-08-19T03:22:39;7.72;;;5.05;;
26538;SDS011;14205;43.200;24.170;2022-08-19T03:25:04;8.77;;;5.75;;
26538;SDS011;14205;43.200;24.170;2022-08-19T03:27:30;10.43;;;5.40;;
26538;SDS011;14205;43.200;24.170;2022-08-19T03:29:55;10.63;;;5.10;;
26538;SDS011;14205;43.200;24.170;2022-08-19T03:32:21;6.68;;;5.25;;
26538;SDS011;14205;43.200;24.170;2022-08-19T03:34:47;7.25;;;4.82;;
26538;SDS011;14205;43.200;24.170;2022-08-19T03:37:13;8.57;;;5.80;;
26538;SDS011;14205;43.200;24.170;2022-08-19T03:39:39;8.00;;;5.57;;
26538;SDS011;14205;43.200;24.170;2022-08-19T03:42:05;9.65;;;5.43;;
26538;SDS011;14205;43.200;24.170;2022-08-19T03:44:31;5.63;;;4.70;;
26538;SDS011;14205;43.200;24.170;2022-08-19T03:46:58;9.05;;;5.60;;
26538;SDS011;14205;43.200;24.170;2022-08-19T03:49:27;7.30;;;5.38;;
26538;SDS011;14205;43.200;24.170;2022-08-19T03:51:54;9.45;;;6.05;;
26538;SDS011;14205;43.200;24.170;2022-08-19T03:54:23;7.22;;;5.65;;
26538;SDS011;14205;43.200;24.170;2022-08-19T03:56:50;7.20;;;5.53;;
26538;SDS011;14205;43.200;24.170;2022-08-19T03:59:18;7.80;;;5.28;;
26538;SDS011;14205;43.200;24.170;2022-08-19T04:01:46;7.63;;;5.90;;
26538;SDS011;14205;43.200;24.170;2022-08-19T04:04:12;8.75;;;5.78;;
26538;SDS011;14205;43.200;24.170;2022-08-19T04:06:37;14.35;;;5.75;;
26538;SDS011;14205;43.200;24.170;2022-08-19T04:09:06;9.48;;;5.40;;
26538;SDS011;14205;43.200;24.170;2022-08-19T04:11:35;11.07;;;6.40;;
26538;SDS011;14205;43.200;24.170;2022-08-19T04:14:25;9.15;;;5.57;;
26538;SDS011;14205;43.200;24.170;2022-08-19T04:16:55;11.65;;;6.18;;
26538;SDS011;14205;43.200;24.170;2022-08-19T04:19:21;15.30;;;7.50;;
26538;SDS011;14205;43.200;24.170;2022-08-19T04:21:48;12.23;;;6.63;;
26538;SDS011;14205;43.200;24.170;2022-08-19T04:24:17;11.65;;;5.45;;
26538;SDS011;14205;43.200;24.170;2022-08-19T04:26:43;9.32;;;5.43;;
26538;SDS011;14205;43.200;24.170;2022-08-19T04:29:11;9.65;;;5.53;;
26538;SDS011;14205;43.200;24.170;2022-08-19T04:31:40;8.80;;;5.18;;
26538;SDS011;14205;43.200;24.170;2022-08-19T04:34:07;8.50;;;4.85;;
26538;SDS011;14205;43.200;24.170;2022-08-19T04:36:36;8.90;;;5.53;;
26538;SDS011;14205;43.200;24.170;2022-08-19T04:39:07;12.30;;;5.63;;
26538;SDS011;14205;43.200;24.170;2022-08-19T04:41:39;11.57;;;5.40;;
26538;SDS011;14205;43.200;24.170;2022-08-19T04:44:23;9.90;;;5.13;;
26538;SDS011;14205;43.200;24.170;2022-08-19T04:46:49;10.48;;;5.18;;
26538;SDS011;14205;43.200;24.170;2022-08-19T04:49:16;13.40;;;6.07;;
26538;SDS011;14205;43.200;24.170;2022-08-19T04:51:44;16.63;;;5.90;;
26538;SDS011;14205;43.200;24.170;2022-08-19T04:54:12;10.25;;;5.95;;
26538;SDS011;14205;43.200;24.170;2022-08-19T04:56:40;9.55;;;5.85;;
26538;SDS011;14205;43.200;24.170;2022-08-19T04:59:06;10.70;;;5.50;;
26538;SDS011;14205;43.200;24.170;2022-08-19T05:01:32;12.63;;;5.40;;
26538;SDS011;14205;43.200;24.170;2022-08-19T05:03:59;13.68;;;6.03;;
26538;SDS011;14205;43.200;24.170;2022-08-19T05:06:26;14.52;;;6.35;;
26538;SDS011;14205;43.200;24.170;2022-08-19T05:08:52;16.13;;;6.47;;
26538;SDS011;14205;43.200;24.170;2022-08-19T05:11:19;16.85;;;6.18;;
26538;SDS011;14205;43.200;24.170;2022-08-19T05:13:50;17.45;;;7.05;;
26538;SDS011;14205;43.200;24.170;2022-08-19T05:16:17;16.92;;;6.15;;
26538;SDS011;14205;43.200;24.170;2022-08-19T05:18:44;13.60;;;6.53;;
26538;SDS011;14205;43.200;24.170;2022-08-19T05:21:29;9.27;;;5.15;;
26538;SDS011;14205;43.200;24.170;2022-08-19T05:24:14;9.70;;;4.70;;
26538;SDS011;14205;43.200;24.170;2022-08-19T05:26:41;8.77;;;4.53;;
26538;SDS011;14205;43.200;24.170;2022-08-19T05:29:11;7.20;;;4.18;;
26538;SDS011;14205;43.200;24.170;2022-08-19T05:31:39;7.88;;;4.20;;
26538;SDS011;14205;43.200;24.170;2022-08-19T05:34:05;6.53;;;4.32;;
26538;SDS011;14205;43.200;24.170;2022-08-19T05:36:39;11.40;;;4.40;;
26538;SDS011;14205;43.200;24.170;2022-08-19T05:39:07;7.13;;;4.80;;
26538;SDS011;14205;43.200;24.170;2022-08-19T05:41:34;12.55;;;5.45;;
26538;SDS011;14205;43.200;24.170;2022-08-19T05:44:03;11.27;;;5.43;;
26538;SDS011;14205;43.200;24.170;2022-08-19T05:46:31;12.43;;;5.38;;
26538;SDS011;14205;43.200;24.170;2022-08-19T05:48:57;16.08;;;5.03;;
26538;SDS011;14205;43.200;24.170;2022-08-19T05:51:24;11.32;;;4.53;;
26538;SDS011;14205;43.200;24.170;2022-08-19T05:53:50;8.88;;;4.55;;
26538;SDS011;14205;43.200;24.170;2022-08-19T05:56:16;6.80;;;3.83;;
26538;SDS011;14205;43.200;24.170;2022-08-19T05:58:43;4.97;;;3.50;;
26538;SDS011;14205;43.200;24.170;2022-08-19T06:01:11;4.95;;;3.38;;
26538;SDS011;14205;43.200;24.170;2022-08-19T06:03:38;6.90;;;3.50;;
26538;SDS011;14205;43.200;24.170;2022-08-19T06:06:05;5.53;;;3.60;;
26538;SDS011;14205;43.200;24.170;2022-08-19T06:08:33;8.07;;;3.92;;
26538;SDS011;14205;43.200;24.170;2022-08-19T06:11:11;8.10;;;3.90;;
26538;SDS011;14205;43.200;24.170;2022-08-19T06:13:49;9.48;;;3.70;;
26538;SDS011;14205;43.200;24.170;2022-08-19T06:16:20;10.27;;;3.75;;
26538;SDS011;14205;43.200;24.170;2022-08-19T06:18:50;6.22;;;3.50;;
26538;SDS011;14205;43.200;24.170;2022-08-19T06:21:18;7.63;;;3.45;;
26538;SDS011;14205;43.200;24.170;2022-08-19T06:23:45;7.07;;;3.80;;
26538;SDS011;14205;43.200;24.170;2022-08-19T06:26:12;10.68;;;3.75;;
26538;SDS011;14205;43.200;24.170;2022-08-19T06:28:38;8.18;;;4.97;;
26538;SDS011;14205;43.200;24.170;2022-08-19T06:31:08;6.35;;;3.33;;
26538;SDS011;14205;43.200;24.170;2022-08-19T06:33:35;5.15;;;3.42;;
26538;SDS011;14205;43.200;24.170;2022-08-19T06:36:02;5.25;;;3.83;;
26538;SDS011;14205;43.200;24.170;2022-08-19T06:38:28;5.85;;;3.63;;
26538;SDS011;14205;43.200;24.170;2022-08-19T06:41:03;7.10;;;3.40;;
26538;SDS011;14205;43.200;24.170;2022-08-19T06:43:29;5.68;;;3.47;;
26538;SDS011;14205;43.200;24.170;2022-08-19T06:45:55;7.82;;;4.00;;
26538;SDS011;14205;43.200;24.170;2022-08-19T06:48:20;8.55;;;3.47;;
26538;SDS011;14205;43.200;24.170;2022-08-19T06:50:46;5.68;;;3.50;;
26538;SDS011;14205;43.200;24.170;2022-08-19T06:53:12;5.60;;;3.60;;
26538;SDS011;14205;43.200;24.170;2022-08-19T06:55:37;7.18;;;3.22;;
26538;SDS011;14205;43.200;24.170;2022-08-19T06:58:04;11.32;;;3.85;;
26538;SDS011;14205;43.200;24.170;2022-08-19T07:00:29;7.10;;;3.80;;
26538;SDS011;14205;43.200;24.170;2022-08-19T07:02:57;7.28;;;3.53;;
26538;SDS011;14205;43.200;24.170;2022-08-19T07:05:23;5.18;;;3.83;;
26538;SDS011;14205;43.200;24.170;2022-08-19T07:07:49;5.95;;;3.78;;
26538;SDS011;14205;43.200;24.170;2022-08-19T07:10:14;9.32;;;3.88;;
26538;SDS011;14205;43.200;24.170;2022-08-19T07:12:40;10.30;;;4.72;;
26538;SDS011;14205;43.200;24.170;2022-08-19T07:15:06;6.75;;;4.28;;
26538;SDS011;14205;43.200;24.170;2022-08-19T07:17:33;7.82;;;4.00;;
26538;SDS011;14205;43.200;24.170;2022-08-19T07:20:02;6.93;;;3.90;;
26538;SDS011;14205;43.200;24.170;2022-08-19T07:22:28;7.38;;;3.88;;
26538;SDS011;14205;43.200;24.170;2022-08-19T07:24:53;7.05;;;3.83;;
26538;SDS011;14205;43.200;24.170;2022-08-19T07:27:19;7.93;;;3.90;;
26538;SDS011;14205;43.200;24.170;2022-08-19T07:29:45;6.75;;;3.85;;
26538;SDS011;14205;43.200;24.170;2022-08-19T07:32:10;7.05;;;3.53;;
26538;SDS011;14205;43.200;24.170;2022-08-19T07:34:36;6.13;;;3.33;;
26538;SDS011;14205;43.200;24.170;2022-08-19T07:37:05;8.15;;;3.45;;
26538;SDS011;14205;43.200;24.170;2022-08-19T07:39:32;9.32;;;3.33;;
26538;SDS011;14205;43.200;24.170;2022-08-19T07:42:01;9.30;;;3.70;;
26538;SDS011;14205;43.200;24.170;2022-08-19T07:44:31;7.65;;;3.15;;
26538;SDS011;14205;43.200;24.170;2022-08-19T07:46:56;7.68;;;3.60;;
26538;SDS011;14205;43.200;24.170;2022-08-19T07:49:23;9.25;;;3.45;;
26538;SDS011;14205;43.200;24.170;2022-08-19T07:51:50;6.20;;;3.42;;
26538;SDS011;14205;43.200;24.170;2022-08-19T07:54:28;6.97;;;3.60;;
26538;SDS011;14205;43.200;24.170;2022-08-19T07:56:55;5.43;;;3.28;;
26538;SDS011;14205;43.200;24.170;2022-08-19T07:59:22;7.18;;;3.30;;
26538;SDS011;14205;43.200;24.170;2022-08-19T08:01:48;6.93;;;3.08;;
26538;SDS011;14205;43.200;24.170;2022-08-19T08:04:15;9.43;;;2.97;;
26538;SDS011;14205;43.200;24.170;2022-08-19T08:07:01;9.82;;;3.22;;
26538;SDS011;14205;43.200;24.170;2022-08-19T08:09:45;6.57;;;3.33;;
26538;SDS011;14205;43.200;24.170;2022-08-19T08:12:12;7.38;;;2.90;;
26538;SDS011;14205;43.200;24.170;2022-08-19T08:14:50;5.90;;;2.88;;
26538;SDS011;14205;43.200;24.170;2022-08-19T08:17:19;13.55;;;3.38;;
26538;SDS011;14205;43.200;24.170;2022-08-19T08:19:46;9.15;;;3.75;;
26538;SDS011;14205;43.200;24.170;2022-08-19T08:22:15;6.57;;;3.08;;
26538;SDS011;14205;43.200;24.170;2022-08-19T08:25:05;9.90;;;3.65;;
26538;SDS011;14205;43.200;24.170;2022-08-19T08:27:37;6.13;;;3.80;;
26538;SDS011;14205;43.200;24.170;2022-08-19T08:30:08;11.13;;;3.58;;
26538;SDS011;14205;43.200;24.170;2022-08-19T08:32:38;7.32;;;3.00;;
26538;SDS011;14205;43.200;24.170;2022-08-19T08:35:05;9.82;;;3.33;;
26538;SDS011;14205;43.200;24.170;2022-08-19T08:37:32;7.97;;;3.15;;
26538;SDS011;14205;43.200;24.170;2022-08-19T08:39:58;7.93;;;3.00;;
26538;SDS011;14205;43.200;24.170;2022-08-19T08:42:27;6.32;;;2.97;;
26538;SDS011;14205;43.200;24.170;2022-08-19T08:47:38;6.47;;;3.20;;
26538;SDS011;14205;43.200;24.170;2022-08-19T08:50:15;8.38;;;3.50;;
26538;SDS011;14205;43.200;24.170;2022-08-19T08:52:48;6.20;;;3.20;;
26538;SDS011;14205;43.200;24.170;2022-08-19T08:55:19;5.72;;;3.17;;
26538;SDS011;14205;43.200;24.170;2022-08-19T09:00:24;7.40;;;3.67;;
26538;SDS011;14205;43.200;24.170;2022-08-19T09:02:55;9.68;;;3.60;;
26538;SDS011;14205;43.200;24.170;2022-08-19T09:05:22;5.72;;;3.75;;
26538;SDS011;14205;43.200;24.170;2022-08-19T09:10:31;8.10;;;3.92;;
26538;SDS011;14205;43.200;24.170;2022-08-19T09:16:20;10.80;;;3.35;;
26538;SDS011;14205;43.200;24.170;2022-08-19T09:18:46;11.23;;;3.65;;
26538;SDS011;14205;43.200;24.170;2022-08-19T09:21:17;6.32;;;3.65;;
26538;SDS011;14205;43.200;24.170;2022-08-19T09:23:42;9.20;;;3.72;;
26538;SDS011;14205;43.200;24.170;2022-08-19T09:26:09;5.55;;;3.25;;
26538;SDS011;14205;43.200;24.170;2022-08-19T09:28:39;7.00;;;3.63;;
26538;SDS011;14205;43.200;24.170;2022-08-19T09:31:08;4.47;;;3.38;;
26538;SDS011;14205;43.200;24.170;2022-08-19T09:33:34;9.05;;;3.75;;
26538;SDS011;14205;43.200;24.170;2022-08-19T09:36:07;7.28;;;3.55;;
26538;SDS011;14205;43.200;24.170;2022-08-19T09:38:34;4.60;;;3.55;;
26538;SDS011;14205;43.200;24.170;2022-08-19T09:41:04;8.88;;;3.72;;
26538;SDS011;14205;43.200;24.170;2022-08-19T09:43:32;8.55;;;4.00;;
26538;SDS011;14205;43.200;24.170;2022-08-19T09:45:59;6.22;;;3.90;;
26538;SDS011;14205;43.200;24.170;2022-08-19T09:48:25;9.07;;;4.20;;
26538;SDS011;14205;43.200;24.170;2022-08-19T09:50:51;9.77;;;4.15;;
26538;SDS011;14205;43.200;24.170;2022-08-19T09:53:16;8.13;;;4.47;;
26538;SDS011;14205;43.200;24.170;2022-08-19T09:55:42;12.13;;;4.43;;
26538;SDS011;14205;43.200;24.170;2022-08-19T09:58:09;7.13;;;3.95;;
26538;SDS011;14205;43.200;24.170;2022-08-19T10:00:36;4.88;;;3.47;;
26538;SDS011;14205;43.200;24.170;2022-08-19T10:03:03;4.15;;;3.58;;
26538;SDS011;14205;43.200;24.170;2022-08-19T10:05:29;6.45;;;3.97;;
26538;SDS011;14205;43.200;24.170;2022-08-19T10:08:13;6.68;;;4.20;;
26538;SDS011;14205;43.200;24.170;2022-08-19T10:10:43;9.45;;;4.57;;
26538;SDS011;14205;43.200;24.170;2022-08-19T10:13:09;7.15;;;4.05;;
26538;SDS011;14205;43.200;24.170;2022-08-19T10:15:34;4.38;;;3.70;;
26538;SDS011;14205;43.200;24.170;2022-08-19T10:18:00;6.70;;;3.85;;
26538;SDS011;14205;43.200;24.170;2022-08-19T10:20:26;5.55;;;4.35;;
26538;SDS011;14205;43.200;24.170;2022-08-19T10:22:51;11.23;;;4.18;;
26538;SDS011;14205;43.200;24.170;2022-08-19T10:25:17;6.90;;;3.75;;
26538;SDS011;14205;43.200;24.170;2022-08-19T10:27:42;6.03;;;3.97;;
26538;SDS011;14205;43.200;24.170;2022-08-19T10:30:08;5.82;;;3.75;;
26538;SDS011;14205;43.200;24.170;2022-08-19T10:32:34;7.55;;;3.70;;
26538;SDS011;14205;43.200;24.170;2022-08-19T10:35:00;4.18;;;3.53;;
26538;SDS011;14205;43.200;24.170;2022-08-19T10:37:27;8.15;;;4.30;;
26538;SDS011;14205;43.200;24.170;2022-08-19T10:39:53;7.85;;;4.25;;
26538;SDS011;14205;43.200;24.170;2022-08-19T10:42:18;7.63;;;4.07;;
26538;SDS011;14205;43.200;24.170;2022-08-19T10:44:44;5.22;;;4.07;;
26538;SDS011;14205;43.200;24.170;2022-08-19T10:47:11;7.25;;;3.90;;
26538;SDS011;14205;43.200;24.170;2022-08-19T10:49:36;8.07;;;4.07;;
26538;SDS011;14205;43.200;24.170;2022-08-19T10:52:22;4.63;;;3.65;;
26538;SDS011;14205;43.200;24.170;2022-08-19T10:55:00;8.80;;;3.80;;
26538;SDS011;14205;43.200;24.170;2022-08-19T10:57:45;10.48;;;3.45;;
26538;SDS011;14205;43.200;24.170;2022-08-19T11:00:11;5.03;;;3.25;;
26538;SDS011;14205;43.200;24.170;2022-08-19T11:02:37;10.23;;;3.70;;
26538;SDS011;14205;43.200;24.170;2022-08-19T11:05:03;8.30;;;3.95;;
26538;SDS011;14205;43.200;24.170;2022-08-19T11:07:29;8.40;;;3.50;;
26538;SDS011;14205;43.200;24.170;2022-08-19T11:09:54;6.97;;;3.75;;
26538;SDS011;14205;43.200;24.170;2022-08-19T11:12:19;7.95;;;3.25;;
26538;SDS011;14205;43.200;24.170;2022-08-19T11:14:45;6.82;;;3.40;;
26538;SDS011;14205;43.200;24.170;2022-08-19T11:17:10;6.80;;;3.33;;
26538;SDS011;14205;43.200;24.170;2022-08-19T11:19:38;7.50;;;3.22;;
26538;SDS011;14205;43.200;24.170;2022-08-19T11:22:06;7.05;;;3.30;;
26538;SDS011;14205;43.200;24.170;2022-08-19T11:24:33;6.20;;;3.08;;
26538;SDS011;14205;43.200;24.170;2022-08-19T11:27:06;4.05;;;2.80;;
26538;SDS011;14205;43.200;24.170;2022-08-19T11:29:39;11.30;;;3.20;;
26538;SDS011;14205;43.200;24.170;2022-08-19T11:32:06;4.88;;;3.05;;
26538;SDS011;14205;43.200;24.170;2022-08-19T11:34:34;10.15;;;2.97;;
26538;SDS011;14205;43.200;24.170;2022-08-19T11:37:00;5.88;;;3.10;;
26538;SDS011;14205;43.200;24.170;2022-08-19T11:39:28;4.68;;;2.92;;
26538;SDS011;14205;43.200;24.170;2022-08-19T11:41:57;8.00;;;3.60;;
26538;SDS011;14205;43.200;24.170;2022-08-19T11:44:24;5.63;;;3.20;;
26538;SDS011;14205;43.200;24.170;2022-08-19T11:46:50;5.38;;;3.58;;
26538;SDS011;14205;43.200;24.170;2022-08-19T11:49:18;3.80;;;2.90;;
26538;SDS011;14205;43.200;24.170;2022-08-19T11:51:44;5.00;;;3.03;;
26538;SDS011;14205;43.200;24.170;2022-08-19T11:54:11;7.85;;;3.65;;
26538;SDS011;14205;43.200;24.170;2022-08-19T11:56:39;6.53;;;3.20;;
26538;SDS011;14205;43.200;24.170;2022-08-19T11:59:05;8.73;;;3.90;;
26538;SDS011;14205;43.200;24.170;2022-08-19T12:01:32;8.80;;;3.42;;
26538;SDS011;14205;43.200;24.170;2022-08-19T12:03:58;5.55;;;3.13;;
26538;SDS011;14205;43.200;24.170;2022-08-19T12:06:25;5.82;;;3.05;;
26538;SDS011;14205;43.200;24.170;2022-08-19T12:11:22;7.20;;;3.85;;
26538;SDS011;14205;43.200;24.170;2022-08-19T12:13:49;6.10;;;3.88;;
26538;SDS011;14205;43.200;24.170;2022-08-19T12:16:16;7.45;;;3.25;;
26538;SDS011;14205;43.200;24.170;2022-08-19T12:18:43;8.35;;;3.50;;
26538;SDS011;14205;43.200;24.170;2022-08-19T12:21:11;7.95;;;3.60;;
26538;SDS011;14205;43.200;24.170;2022-08-19T12:23:39;6.45;;;3.60;;
26538;SDS011;14205;43.200;24.170;2022-08-19T12:26:05;8.85;;;3.50;;
26538;SDS011;14205;43.200;24.170;2022-08-19T12:28:31;10.35;;;3.63;;
26538;SDS011;14205;43.200;24.170;2022-08-19T12:30:56;11.38;;;3.83;;
26538;SDS011;14205;43.200;24.170;2022-08-19T12:33:22;8.45;;;3.30;;
26538;SDS011;14205;43.200;24.170;2022-08-19T12:35:51;7.55;;;3.65;;
26538;SDS011;14205;43.200;24.170;2022-08-19T12:38:17;10.85;;;3.20;;
26538;SDS011;14205;43.200;24.170;2022-08-19T12:40:46;10.07;;;3.75;;
26538;SDS011;14205;43.200;24.170;2022-08-19T12:43:14;10.30;;;3.70;;
26538;SDS011;14205;43.200;24.170;2022-08-19T12:45:43;5.43;;;3.70;;
26538;SDS011;14205;43.200;24.170;2022-08-19T12:48:10;6.60;;;3.38;;
26538;SDS011;14205;43.200;24.170;2022-08-19T12:50:35;6.78;;;3.25;;
26538;SDS011;14205;43.200;24.170;2022-08-19T12:53:04;4.72;;;3.08;;
26538;SDS011;14205;43.200;24.170;2022-08-19T12:55:29;6.20;;;2.97;;
26538;SDS011;14205;43.200;24.170;2022-08-19T12:57:55;6.30;;;3.15;;
26538;SDS011;14205;43.200;24.170;2022-08-19T13:00:21;8.40;;;3.72;;
26538;SDS011;14205;43.200;24.170;2022-08-19T13:02:48;7.10;;;3.30;;
26538;SDS011;14205;43.200;24.170;2022-08-19T13:05:17;10.00;;;3.80;;
26538;SDS011;14205;43.200;24.170;2022-08-19T13:07:47;8.10;;;3.33;;
26538;SDS011;14205;43.200;24.170;2022-08-19T13:10:14;7.05;;;3.40;;
26538;SDS011;14205;43.200;24.170;2022-08-19T13:12:41;4.75;;;3.22;;
26538;SDS011;14205;43.200;24.170;2022-08-19T13:15:08;6.70;;;3.05;;
26538;SDS011;14205;43.200;24.170;2022-08-19T13:17:34;6.20;;;3.45;;
26538;SDS011;14205;43.200;24.170;2022-08-19T13:20:00;8.90;;;3.55;;
26538;SDS011;14205;43.200;24.170;2022-08-19T13:22:26;6.75;;;3.45;;
26538;SDS011;14205;43.200;24.170;2022-08-19T13:24:52;6.25;;;3.47;;
26538;SDS011;14205;43.200;24.170;2022-08-19T13:27:17;6.78;;;3.20;;
26538;SDS011;14205;43.200;24.170;2022-08-19T13:29:43;5.43;;;3.03;;
26538;SDS011;14205;43.200;24.170;2022-08-19T13:32:28;7.32;;;4.63;;
26538;SDS011;14205;43.200;24.170;2022-08-19T13:35:12;4.28;;;3.05;;
26538;SDS011;14205;43.200;24.170;2022-08-19T13:37:38;5.30;;;3.08;;
26538;SDS011;14205;43.200;24.170;2022-08-19T13:40:16;13.23;;;3.47;;
26538;SDS011;14205;43.200;24.170;2022-08-19T13:42:52;5.32;;;3.15;;
26538;SDS011;14205;43.200;24.170;2022-08-19T13:45:19;4.25;;;2.90;;
26538;SDS011;14205;43.200;24.170;2022-08-19T13:47:48;4.32;;;3.10;;
26538;SDS011;14205;43.200;24.170;2022-08-19T13:50:15;6.28;;;3.17;;
26538;SDS011;14205;43.200;24.170;2022-08-19T13:52:44;7.07;;;3.70;;
26538;SDS011;14205;43.200;24.170;2022-08-19T13:55:10;9.80;;;3.90;;
26538;SDS011;14205;43.200;24.170;2022-08-19T13:57:37;6.95;;;3.20;;
26538;SDS011;14205;43.200;24.170;2022-08-19T14:00:07;7.97;;;3.10;;
26538;SDS011;14205;43.200;24.170;2022-08-19T14:02:37;7.90;;;3.25;;
26538;SDS011;14205;43.200;24.170;2022-08-19T14:05:04;7.28;;;3.28;;
26538;SDS011;14205;43.200;24.170;2022-08-19T14:07:31;7.55;;;3.45;;
26538;SDS011;14205;43.200;24.170;2022-08-19T14:09:57;7.85;;;3.47;;
26538;SDS011;14205;43.200;24.170;2022-08-19T14:12:23;7.47;;;3.40;;
26538;SDS011;14205;43.200;24.170;2022-08-19T14:14:49;8.82;;;3.88;;
26538;SDS011;14205;43.200;24.170;2022-08-19T14:17:14;5.65;;;3.45;;
26538;SDS011;14205;43.200;24.170;2022-08-19T14:19:40;7.25;;;4.00;;
26538;SDS011;14205;43.200;24.170;2022-08-19T14:22:06;8.40;;;3.70;;
26538;SDS011;14205;43.200;24.170;2022-08-19T14:24:32;6.78;;;3.53;;
26538;SDS011;14205;43.200;24.170;2022-08-19T14:26:57;7.10;;;3.60;;
26538;SDS011;14205;43.200;24.170;2022-08-19T14:29:24;9.65;;;3.40;;
26538;SDS011;14205;43.200;24.170;2022-08-19T14:31:49;4.53;;;3.55;;
26538;SDS011;14205;43.200;24.170;2022-08-19T14:34:15;6.03;;;3.65;;
26538;SDS011;14205;43.200;24.170;2022-08-19T14:36:40;14.10;;;3.83;;
26538;SDS011;14205;43.200;24.170;2022-08-19T14:39:06;7.22;;;3.97;;
26538;SDS011;14205;43.200;24.170;2022-08-19T14:41:34;9.25;;;3.97;;
26538;SDS011;14205;43.200;24.170;2022-08-19T14:43:59;6.13;;;4.00;;
26538;SDS011;14205;43.200;24.170;2022-08-19T14:46:26;6.78;;;3.72;;
26538;SDS011;14205;43.200;24.170;2022-08-19T14:48:53;9.52;;;3.75;;
26538;SDS011;14205;43.200;24.170;2022-08-19T14:51:20;9.27;;;4.05;;
26538;SDS011;14205;43.200;24.170;2022-08-19T14:53:47;6.80;;;3.50;;